Time;durP1;ratioP1;P1;durP2;ratioP2;P2;SDS_P1;SDS_P2;PMS_P1;PMS_P2;Temp;Humidity;BMP_temperature;BMP_pressure;BME280_temperature;BME280_humidity;BME280_pressure;Samples;Min_cycle;Max_cycle;Signal;HPM_P1;HPM_P2
2023/07/11 00:02:25;;;;;;;6.20;4.60;;;;;;;-128.00;-1.00;-1.00;97824;294;1003732;-30
2023/07/11 00:04:51;;;;;;;5.60;5.10;;;;;;;-128.00;-1.00;-1.00;97880;294;1003100;-33
2023/07/11 00:07:17;;;;;;;5.00;3.90;;;;;;;-128.00;-1.00;-1.00;97862;294;1003080;-35
2023/07/11 00:09:48;;;;;;;7.60;4.40;;;;;;;-128.00;-1.00;-1.00;98118;294;1003604;-35
2023/07/11 00:12:15;;;;;;;6.30;5.00;;;;;;;-128.00;-1.00;-1.00;97914;294;1003580;-31
2023/07/11 00:14:41;;;;;;;8.50;5.20;;;;;;;-128.00;-1.00;-1.00;97895;294;1004557;-31
2023/07/11 00:17:07;;;;;;;8.10;4.60;;;;;;;-128.00;-1.00;-1.00;98041;283;1003589;-35
2023/07/11 00:19:48;;;;;;;4.20;3.50;;;;;;;-128.00;-1.00;-1.00;97942;294;1002692;-38
2023/07/11 00:22:14;;;;;;;5.10;3.90;;;;;;;-128.00;-1.00;-1.00;98161;294;1003337;-32
2023/07/11 00:24:40;;;;;;;6.20;4.20;;;;;;;-128.00;-1.00;-1.00;97913;294;1003240;-33
2023/07/11 00:27:05;;;;;;;5.30;4.20;;;;;;;-128.00;-1.00;-1.00;98084;294;1004522;-33
2023/07/11 00:29:31;;;;;;;6.60;4.50;;;;;;;-128.00;-1.00;-1.00;97967;294;1002693;-36
2023/07/11 00:31:56;;;;;;;5.40;3.40;;;;;;;-128.00;-1.00;-1.00;97891;294;1003069;-36
2023/07/11 00:34:22;;;;;;;4.70;4.10;;;;;;;-128.00;-1.00;-1.00;97803;294;1003017;-31
2023/07/11 00:36:47;;;;;;;4.60;3.10;;;;;;;-128.00;-1.00;-1.00;97900;294;1004277;-35
2023/07/11 01:19:35;;;;;;;9.60;8.10;;;;;;;-99.12;19.20;19889.38;19581;295;8045919;-32
2023/07/11 01:22:01;;;;;;;8.70;6.00;;;;;;;-128.00;-1.00;-1.00;18641;285;7504785;-32
2023/07/11 01:24:28;;;;;;;7.60;5.40;;;;;;;-128.00;-1.00;-1.00;18889;296;7506668;-32
2023/07/11 01:26:56;;;;;;;8.20;6.50;;;;;;;-128.00;-1.00;-1.00;18475;295;7505960;-36
2023/07/11 01:29:22;;;;;;;4.50;4.10;;;;;;;-128.00;-1.00;-1.00;18465;295;7504733;-35
2023/07/11 01:31:47;;;;;;;3.80;3.30;;;;;;;-128.00;-1.00;-1.00;18483;295;7505040;-36
2023/07/11 01:34:13;;;;;;;9.80;6.00;;;;;;;-128.00;-1.00;-1.00;18884;347;7506147;-36
2023/07/11 01:36:39;;;;;;;7.40;5.90;;;;;;;-128.00;-1.00;-1.00;18862;336;7504353;-35
2023/07/11 01:39:06;;;;;;;6.10;5.30;;;;;;;-128.00;-1.00;-1.00;18889;284;7505299;-33
2023/07/11 01:41:33;;;;;;;7.50;6.80;;;;;;;-128.00;-1.00;-1.00;18467;295;7504566;-37
2023/07/11 01:43:59;;;;;;;8.70;4.90;;;;;;;-128.00;-1.00;-1.00;18472;295;7504454;-36
2023/07/11 01:46:24;;;;;;;5.10;4.60;;;;;;;-128.00;-1.00;-1.00;18506;295;7504533;-36
2023/07/11 01:48:51;;;;;;;5.40;4.90;;;;;;;-128.00;-1.00;-1.00;18464;295;7505009;-32
2023/07/11 01:51:17;;;;;;;6.10;4.60;;;;;;;-128.00;-1.00;-1.00;18859;318;7504931;-31
2023/07/11 01:53:43;;;;;;;6.30;5.60;;;;;;;-128.00;-1.00;-1.00;18879;295;7504572;-32
2023/07/11 01:56:09;;;;;;;7.30;5.70;;;;;;;-128.00;-1.00;-1.00;18919;287;7504907;-32
2023/07/11 01:58:35;;;;;;;6.30;5.00;;;;;;;-128.00;-1.00;-1.00;18883;295;7504546;-33
2023/07/11 02:01:02;;;;;;;7.70;5.20;;;;;;;-128.00;-1.00;-1.00;18864;287;7504552;-31
2023/07/11 02:03:28;;;;;;;5.00;4.20;;;;;;;-128.00;-1.00;-1.00;18484;295;7506621;-32
2023/07/11 02:05:54;;;;;;;4.20;3.80;;;;;;;-128.00;-1.00;-1.00;18488;296;7504585;-32
2023/07/11 02:08:20;;;;;;;6.10;4.10;;;;;;;-128.00;-1.00;-1.00;18493;347;7504481;-32
2023/07/11 02:10:46;;;;;;;5.20;3.90;;;;;;;-128.00;-1.00;-1.00;18861;295;7504588;-32
2023/07/11 02:13:12;;;;;;;5.10;3.10;;;;;;;-128.00;-1.00;-1.00;18892;295;7504534;-32
2023/07/11 02:15:40;;;;;;;6.00;4.60;;;;;;;-128.00;-1.00;-1.00;18860;295;7504985;-31
2023/07/11 02:18:05;;;;;;;6.90;4.30;;;;;;;-128.00;-1.00;-1.00;18480;284;7505022;-37
2023/07/11 02:20:31;;;;;;;4.50;3.80;;;;;;;-128.00;-1.00;-1.00;18495;335;7504528;-35
2023/07/11 02:22:59;;;;;;;4.70;4.20;;;;;;;-128.00;-1.00;-1.00;18484;288;7504550;-31
2023/07/11 02:25:26;;;;;;;4.00;3.40;;;;;;;-128.00;-1.00;-1.00;18468;285;7505639;-37
2023/07/11 02:27:51;;;;;;;9.10;5.00;;;;;;;-128.00;-1.00;-1.00;18466;288;7504424;-36
2023/07/11 02:30:17;;;;;;;8.20;4.60;;;;;;;-128.00;-1.00;-1.00;18865;295;7505099;-36
2023/07/11 02:32:44;;;;;;;7.90;3.80;;;;;;;-128.00;-1.00;-1.00;18888;336;7505438;-36
2023/07/11 02:35:10;;;;;;;14.50;5.50;;;;;;;-128.00;-1.00;-1.00;18878;288;7505491;-34
2023/07/11 02:37:36;;;;;;;6.90;5.60;;;;;;;-128.00;-1.00;-1.00;18867;295;7504629;-37
2023/07/11 02:40:02;;;;;;;13.10;4.10;;;;;;;-128.00;-1.00;-1.00;18865;295;7504212;-32
2023/07/11 02:42:28;;;;;;;5.40;4.50;;;;;;;-128.00;-1.00;-1.00;18855;297;7506183;-35
2023/07/11 02:44:55;;;;;;;8.00;4.70;;;;;;;-128.00;-1.00;-1.00;18873;288;7505140;-34
2023/07/11 02:47:21;;;;;;;8.20;3.70;;;;;;;-128.00;-1.00;-1.00;18887;295;7504350;-32
2023/07/11 02:49:47;;;;;;;3.00;2.50;;;;;;;-128.00;-1.00;-1.00;18477;295;7504537;-31
2023/07/11 02:52:12;;;;;;;3.90;3.20;;;;;;;-128.00;-1.00;-1.00;18486;295;7505256;-31
2023/07/11 02:54:38;;;;;;;6.10;4.50;;;;;;;-128.00;-1.00;-1.00;18486;295;7505297;-31
2023/07/11 02:57:08;;;;;;;5.80;4.80;;;;;;;-128.00;-1.00;-1.00;18465;295;7505159;-35
2023/07/11 02:59:33;;;;;;;11.80;3.30;;;;;;;-128.00;-1.00;-1.00;18498;347;7506025;-32
2023/07/11 03:01:59;;;;;;;8.70;4.60;;;;;;;-128.00;-1.00;-1.00;18854;295;7504168;-32
2023/07/11 03:04:26;;;;;;;8.00;5.00;;;;;;;-128.00;-1.00;-1.00;18860;285;7505263;-31
2023/07/11 03:06:58;;;;;;;4.50;2.60;;;;;;;-128.00;-1.00;-1.00;18485;295;7504709;-36
2023/07/11 03:09:24;;;;;;;;;;;;;;;-128.00;-1.00;-1.00;18466;295;7504725;-32
2023/07/11 03:11:50;;;;;;;8.80;6.60;;;;;;;-128.00;-1.00;-1.00;18489;288;7505668;-33
2023/07/11 03:14:15;;;;;;;17.80;3.40;;;;;;;-128.00;-1.00;-1.00;18462;295;7506181;-35
2023/07/11 03:16:42;;;;;;;7.10;4.70;;;;;;;-128.00;-1.00;-1.00;18450;295;7504988;-32
2023/07/11 03:19:08;;;;;;;5.90;5.30;;;;;;;-128.00;-1.00;-1.00;18470;285;7505190;-32
2023/07/11 03:21:34;;;;;;;7.90;5.00;;;;;;;-128.00;-1.00;-1.00;18463;296;7504265;-33
2023/07/11 03:23:59;;;;;;;3.40;3.10;;;;;;;-128.00;-1.00;-1.00;18498;288;7504296;-31
2023/07/11 03:26:26;;;;;;;7.00;5.60;;;;;;;-128.00;-1.00;-1.00;18878;295;7504367;-32
2023/07/11 03:28:52;;;;;;;5.50;3.30;;;;;;;-128.00;-1.00;-1.00;18870;296;7504649;-33
2023/07/11 03:31:20;;;;;;;7.60;5.20;;;;;;;-128.00;-1.00;-1.00;18881;297;7506628;-33
2023/07/11 03:33:46;;;;;;;6.60;5.00;;;;;;;-128.00;-1.00;-1.00;18499;297;7504990;-33
2023/07/11 03:36:11;;;;;;;7.00;5.70;;;;;;;-128.00;-1.00;-1.00;18496;295;7506272;-32
2023/07/11 03:38:39;;;;;;;6.40;5.40;;;;;;;-128.00;-1.00;-1.00;18880;348;7504450;-36
2023/07/11 03:41:05;;;;;;;5.00;4.20;;;;;;;-128.00;-1.00;-1.00;18471;288;7504719;-36
2023/07/11 03:43:30;;;;;;;4.40;2.50;;;;;;;-128.00;-1.00;-1.00;18475;288;7504832;-32
2023/07/11 03:45:56;;;;;;;7.10;4.60;;;;;;;-128.00;-1.00;-1.00;18901;295;7504301;-32
2023/07/11 03:48:22;;;;;;;6.10;4.60;;;;;;;-128.00;-1.00;-1.00;18856;296;7504655;-32
2023/07/11 03:50:48;;;;;;;9.10;6.40;;;;;;;-128.00;-1.00;-1.00;18872;296;7505537;-34
2023/07/11 03:53:15;;;;;;;9.50;5.60;;;;;;;-128.00;-1.00;-1.00;18887;296;7504771;-33
2023/07/11 03:55:42;;;;;;;7.90;5.20;;;;;;;-128.00;-1.00;-1.00;18868;295;7505241;-32
2023/07/11 03:58:09;;;;;;;7.00;5.70;;;;;;;-128.00;-1.00;-1.00;18463;295;7504808;-36
2023/07/11 04:00:34;;;;;;;11.40;6.40;;;;;;;-128.00;-1.00;-1.00;18469;288;7506238;-36
2023/07/11 04:03:00;;;;;;;9.30;5.10;;;;;;;-128.00;-1.00;-1.00;18475;295;7505996;-32
2023/07/11 04:05:26;;;;;;;10.00;5.20;;;;;;;-128.00;-1.00;-1.00;18853;295;7504334;-33
2023/07/11 04:07:52;;;;;;;5.10;3.60;;;;;;;-128.00;-1.00;-1.00;18865;331;7504630;-31
2023/07/11 04:10:18;;;;;;;5.50;5.00;;;;;;;-128.00;-1.00;-1.00;18871;288;7505147;-32
2023/07/11 04:12:45;;;;;;;6.10;5.00;;;;;;;-128.00;-1.00;-1.00;18863;295;7506984;-36
2023/07/11 04:15:12;;;;;;;10.30;5.40;;;;;;;-128.00;-1.00;-1.00;18860;284;7505383;-35
2023/07/11 04:17:39;;;;;;;10.00;5.20;;;;;;;-128.00;-1.00;-1.00;18463;295;7504878;-35
2023/07/11 04:20:06;;;;;;;7.00;4.20;;;;;;;-128.00;-1.00;-1.00;18474;295;7504186;-33
2023/07/11 04:22:31;;;;;;;5.70;4.10;;;;;;;-128.00;-1.00;-1.00;18460;285;7504499;-36
2023/07/11 04:24:57;;;;;;;11.80;6.10;;;;;;;-128.00;-1.00;-1.00;18463;295;7504617;-37
2023/07/11 04:27:24;;;;;;;5.90;5.20;;;;;;;-128.00;-1.00;-1.00;18456;295;7505371;-31
2023/07/11 04:29:50;;;;;;;3.10;2.70;;;;;;;-128.00;-1.00;-1.00;18501;288;7504911;-32
2023/07/11 04:32:16;;;;;;;6.00;5.30;;;;;;;-128.00;-1.00;-1.00;18885;295;7504721;-36
2023/07/11 04:34:42;;;;;;;6.50;4.80;;;;;;;-128.00;-1.00;-1.00;18865;288;7504551;-33
2023/07/11 04:37:09;;;;;;;6.30;5.30;;;;;;;-128.00;-1.00;-1.00;18873;303;7504716;-37
2023/07/11 04:39:35;;;;;;;7.80;6.20;;;;;;;-128.00;-1.00;-1.00;18875;295;7504433;-32
2023/07/11 04:42:01;;;;;;;4.50;4.10;;;;;;;-128.00;-1.00;-1.00;18866;288;7504235;-36
2023/07/11 04:44:27;;;;;;;11.20;6.10;;;;;;;-128.00;-1.00;-1.00;18892;288;7505480;-32
2023/07/11 04:46:53;;;;;;;7.70;6.10;;;;;;;-128.00;-1.00;-1.00;18855;295;7505499;-36
2023/07/11 04:49:19;;;;;;;9.70;4.60;;;;;;;-128.00;-1.00;-1.00;18861;296;7504530;-33
2023/07/11 04:51:50;;;;;;;6.60;6.00;;;;;;;-128.00;-1.00;-1.00;18881;288;7505152;-33
2023/07/11 04:54:17;;;;;;;5.40;4.00;;;;;;;-128.00;-1.00;-1.00;18428;299;7504419;-35
2023/07/11 04:56:42;;;;;;;12.70;6.40;;;;;;;-128.00;-1.00;-1.00;18483;296;7504409;-31
2023/07/11 04:59:08;;;;;;;7.10;5.10;;;;;;;-128.00;-1.00;-1.00;18474;295;7504193;-35
2023/07/11 05:01:34;;;;;;;6.90;4.80;;;;;;;-128.00;-1.00;-1.00;18451;288;7506474;-35
2023/07/11 05:03:59;;;;;;;7.10;5.90;;;;;;;-128.00;-1.00;-1.00;18447;295;7505045;-31
2023/07/11 05:06:26;;;;;;;7.70;5.70;;;;;;;-128.00;-1.00;-1.00;18452;295;7506414;-36
2023/07/11 05:08:51;;;;;;;5.50;4.50;;;;;;;-128.00;-1.00;-1.00;18456;337;7506531;-33
2023/07/11 05:11:19;;;;;;;10.90;5.30;;;;;;;-128.00;-1.00;-1.00;18463;284;7504421;-38
2023/07/11 05:13:47;;;;;;;6.40;4.90;;;;;;;-128.00;-1.00;-1.00;18467;288;7504861;-32
2023/07/11 05:16:15;;;;;;;6.50;5.50;;;;;;;-128.00;-1.00;-1.00;18465;288;7504326;-36
2023/07/11 05:18:41;;;;;;;6.90;5.50;;;;;;;-128.00;-1.00;-1.00;18485;288;7505137;-36
2023/07/11 05:21:08;;;;;;;4.20;3.70;;;;;;;-128.00;-1.00;-1.00;18465;288;7504799;-36
2023/07/11 05:23:33;;;;;;;6.60;5.10;;;;;;;-128.00;-1.00;-1.00;18461;296;7504533;-33
2023/07/11 05:26:00;;;;;;;5.60;5.10;;;;;;;-128.00;-1.00;-1.00;18483;296;7506609;-36
2023/07/11 05:28:25;;;;;;;6.50;5.80;;;;;;;-128.00;-1.00;-1.00;18452;295;7504143;-34
2023/07/11 05:30:52;;;;;;;7.20;4.50;;;;;;;-128.00;-1.00;-1.00;18474;348;7504327;-37
2023/07/11 05:33:18;;;;;;;4.30;3.90;;;;;;;-128.00;-1.00;-1.00;18484;347;7506003;-36
2023/07/11 05:35:57;;;;;;;7.60;5.50;;;;;;;-128.00;-1.00;-1.00;18875;288;7505093;-36
2023/07/11 05:38:24;;;;;;;7.30;4.40;;;;;;;-128.00;-1.00;-1.00;18471;296;7506440;-32
2023/07/11 05:40:49;;;;;;;11.90;4.40;;;;;;;-128.00;-1.00;-1.00;18491;295;7505011;-35
2023/07/11 05:43:15;;;;;;;6.30;4.80;;;;;;;-128.00;-1.00;-1.00;18497;348;7504644;-37
2023/07/11 05:45:44;;;;;;;4.00;2.30;;;;;;;-128.00;-1.00;-1.00;18488;296;7504979;-36
2023/07/11 05:48:10;;;;;;;6.00;4.10;;;;;;;-128.00;-1.00;-1.00;18488;288;7504110;-36
2023/07/11 05:50:35;;;;;;;5.40;3.90;;;;;;;-128.00;-1.00;-1.00;18436;288;7504959;-36
2023/07/11 05:53:01;;;;;;;4.70;3.90;;;;;;;-128.00;-1.00;-1.00;18466;288;7505318;-32
2023/07/11 05:55:27;;;;;;;6.80;4.80;;;;;;;-128.00;-1.00;-1.00;18471;347;7505246;-38
2023/07/11 05:57:53;;;;;;;4.50;3.90;;;;;;;-128.00;-1.00;-1.00;18889;289;7504206;-36
2023/07/11 06:00:20;;;;;;;4.60;3.50;;;;;;;-128.00;-1.00;-1.00;18884;297;7504909;-32
2023/07/11 06:02:45;;;;;;;7.70;3.80;;;;;;;-128.00;-1.00;-1.00;18497;295;7506214;-32
2023/07/11 06:05:12;;;;;;;3.70;3.10;;;;;;;-128.00;-1.00;-1.00;18869;297;7504995;-32
2023/07/11 06:07:39;;;;;;;4.10;3.70;;;;;;;-128.00;-1.00;-1.00;18879;295;7505118;-33
2023/07/11 06:10:05;;;;;;;9.30;3.60;;;;;;;-128.00;-1.00;-1.00;18479;296;7504555;-33
2023/07/11 06:12:31;;;;;;;6.70;3.20;;;;;;;-128.00;-1.00;-1.00;18472;288;7505101;-37
2023/07/11 06:14:57;;;;;;;4.00;3.20;;;;;;;-128.00;-1.00;-1.00;18473;284;7504903;-35
2023/07/11 06:17:23;;;;;;;4.00;2.90;;;;;;;-128.00;-1.00;-1.00;18879;295;7505238;-32
2023/07/11 06:19:49;;;;;;;21.30;3.50;;;;;;;-128.00;-1.00;-1.00;18482;285;7504266;-36
2023/07/11 06:22:15;;;;;;;4.30;3.30;;;;;;;-128.00;-1.00;-1.00;18478;288;7504703;-34
2023/07/11 06:24:41;;;;;;;2.90;2.50;;;;;;;-128.00;-1.00;-1.00;18876;295;7505472;-35
2023/07/11 06:27:07;;;;;;;7.70;3.80;;;;;;;-128.00;-1.00;-1.00;18882;288;7504397;-35
2023/07/11 06:29:33;;;;;;;6.80;3.80;;;;;;;-128.00;-1.00;-1.00;18901;295;7504171;-31
2023/07/11 06:32:00;;;;;;;4.10;3.30;;;;;;;-128.00;-1.00;-1.00;18867;295;7504966;-36
2023/07/11 06:34:26;;;;;;;5.50;2.60;;;;;;;-128.00;-1.00;-1.00;18482;295;7504511;-37
2023/07/11 06:36:52;;;;;;;3.60;2.10;;;;;;;-128.00;-1.00;-1.00;18475;295;7505937;-33
2023/07/11 06:39:18;;;;;;;4.70;3.90;;;;;;;-128.00;-1.00;-1.00;18896;296;7504978;-36
2023/07/11 06:41:44;;;;;;;7.20;3.80;;;;;;;-128.00;-1.00;-1.00;18870;285;7505032;-35
2023/07/11 06:44:10;;;;;;;2.90;2.70;;;;;;;-128.00;-1.00;-1.00;18886;295;7504776;-36
2023/07/11 06:46:37;;;;;;;6.10;3.80;;;;;;;-128.00;-1.00;-1.00;18866;295;7504627;-35
2023/07/11 06:49:03;;;;;;;4.30;3.70;;;;;;;-128.00;-1.00;-1.00;18910;289;7504483;-32
2023/07/11 06:51:29;;;;;;;8.20;4.00;;;;;;;-128.00;-1.00;-1.00;18871;295;7505553;-36
2023/07/11 06:53:56;;;;;;;7.40;4.10;;;;;;;-128.00;-1.00;-1.00;18872;295;7505549;-32
2023/07/11 06:56:22;;;;;;;4.00;3.60;;;;;;;-128.00;-1.00;-1.00;18877;295;7504755;-35
2023/07/11 06:58:49;;;;;;;3.10;2.80;;;;;;;-128.00;-1.00;-1.00;18488;288;7504687;-36
2023/07/11 07:01:16;;;;;;;2.80;2.20;;;;;;;-128.00;-1.00;-1.00;18481;309;7504404;-36
2023/07/11 07:03:41;;;;;;;2.90;2.00;;;;;;;-128.00;-1.00;-1.00;18468;295;7504509;-36
2023/07/11 07:06:09;;;;;;;4.40;3.60;;;;;;;-128.00;-1.00;-1.00;18488;295;7504791;-36
2023/07/11 07:08:34;;;;;;;3.00;2.50;;;;;;;-128.00;-1.00;-1.00;18485;288;7506160;-37
2023/07/11 07:11:01;;;;;;;4.30;3.30;;;;;;;-128.00;-1.00;-1.00;18861;295;7505186;-37
2023/07/11 07:13:27;;;;;;;3.50;2.30;;;;;;;-128.00;-1.00;-1.00;18472;295;7504181;-36
2023/07/11 07:15:56;;;;;;;5.30;3.60;;;;;;;-128.00;-1.00;-1.00;18495;285;7504770;-32
2023/07/11 07:18:22;;;;;;;3.70;2.60;;;;;;;-128.00;-1.00;-1.00;18496;296;7504710;-32
2023/07/11 07:20:48;;;;;;;4.50;2.60;;;;;;;-128.00;-1.00;-1.00;18471;297;7505009;-35
2023/07/11 07:23:14;;;;;;;8.90;4.20;;;;;;;-128.00;-1.00;-1.00;18491;320;7504198;-35
2023/07/11 07:25:41;;;;;;;4.60;3.60;;;;;;;-128.00;-1.00;-1.00;18482;295;7505020;-36
2023/07/11 07:28:07;;;;;;;3.50;3.00;;;;;;;-128.00;-1.00;-1.00;18494;288;7508467;-35
2023/07/11 07:30:34;;;;;;;4.10;3.20;;;;;;;-128.00;-1.00;-1.00;18466;295;7504545;-32
2023/07/11 07:33:00;;;;;;;4.40;2.80;;;;;;;-128.00;-1.00;-1.00;18496;288;7504815;-36
2023/07/11 07:35:26;;;;;;;7.70;4.80;;;;;;;-128.00;-1.00;-1.00;18495;295;7504656;-36
2023/07/11 07:37:53;;;;;;;3.00;2.60;;;;;;;-128.00;-1.00;-1.00;18890;288;7504089;-36
2023/07/11 07:40:20;;;;;;;4.70;3.70;;;;;;;-128.00;-1.00;-1.00;18869;295;7504593;-32
2023/07/11 07:42:46;;;;;;;3.30;2.40;;;;;;;-128.00;-1.00;-1.00;18509;295;7505368;-35
2023/07/11 07:45:12;;;;;;;4.10;3.10;;;;;;;-128.00;-1.00;-1.00;18864;288;7504992;-32
2023/07/11 07:47:38;;;;;;;4.10;3.80;;;;;;;-128.00;-1.00;-1.00;18867;295;7505367;-36
2023/07/11 07:50:05;;;;;;;4.00;3.60;;;;;;;-128.00;-1.00;-1.00;18871;295;7504734;-32
2023/07/11 07:52:31;;;;;;;1.60;1.40;;;;;;;-128.00;-1.00;-1.00;18487;288;7505365;-31
2023/07/11 07:54:57;;;;;;;5.00;3.70;;;;;;;-128.00;-1.00;-1.00;18876;285;7504883;-32
2023/07/11 07:57:24;;;;;;;4.00;3.60;;;;;;;-128.00;-1.00;-1.00;18902;295;7504847;-32
2023/07/11 07:59:50;;;;;;;4.20;3.30;;;;;;;-128.00;-1.00;-1.00;18899;295;7504246;-32
2023/07/11 08:02:16;;;;;;;5.00;3.00;;;;;;;-128.00;-1.00;-1.00;18879;296;7504645;-35
2023/07/11 08:04:42;;;;;;;3.80;3.20;;;;;;;-128.00;-1.00;-1.00;18878;295;7504394;-35
2023/07/11 08:07:09;;;;;;;5.00;3.70;;;;;;;-128.00;-1.00;-1.00;18880;296;7505132;-32
2023/07/11 08:09:35;;;;;;;4.30;3.70;;;;;;;-128.00;-1.00;-1.00;18868;295;7504606;-35
2023/07/11 08:12:08;;;;;;;3.80;3.50;;;;;;;-128.00;-1.00;-1.00;18882;295;7504387;-31
2023/07/11 08:14:35;;;;;;;;;;;;;;;-128.00;-1.00;-1.00;18455;288;7504548;-32
2023/07/11 08:17:01;;;;;;;;;;;;;;;-128.00;-1.00;-1.00;18476;295;7504698;-31
2023/07/11 08:19:27;;;;;;;;;;;;;;;-128.00;-1.00;-1.00;18868;347;7504244;-35
2023/07/11 08:21:53;;;;;;;;;;;;;;;-128.00;-1.00;-1.00;18883;288;7505485;-36
2023/07/11 08:24:19;;;;;;;;;;;;;;;-128.00;-1.00;-1.00;18900;295;7504955;-37
2023/07/11 08:26:45;;;;;;;;;;;;;;;-128.00;-1.00;-1.00;18900;295;7504954;-33
2023/07/11 08:29:13;;;;;;;;;;;;;;;-128.00;-1.00;-1.00;18908;289;7504594;-35
2023/07/11 08:31:39;;;;;;;;;;;;;;;-128.00;-1.00;-1.00;18491;295;7504799;-35
2023/07/11 08:34:04;;;;;;;;;;;;;;;-128.00;-1.00;-1.00;18487;288;7505834;-31
2023/07/11 08:36:30;;;;;;;;;;;;;;;-128.00;-1.00;-1.00;18847;295;7504666;-35
2023/07/11 08:38:56;;;;;;;;;;;;;;;-128.00;-1.00;-1.00;18876;335;7504246;-35
2023/07/11 08:41:34;;;;;;;;;;;;;;;-128.00;-1.00;-1.00;18870;288;7504935;-35
2023/07/11 08:44:03;;;;;;;;;;;;;;;-128.00;-1.00;-1.00;18485;295;7504816;-32
2023/07/11 08:46:29;;;;;;;;;;;;;;;-128.00;-1.00;-1.00;18476;297;7506375;-32
2023/07/11 08:48:57;;;;;;;;;;;;;;;-128.00;-1.00;-1.00;18453;288;7505829;-32
2023/07/11 08:51:24;;;;;;;;;;;;;;;-128.00;-1.00;-1.00;18461;336;7504651;-31
2023/07/11 08:53:52;;;;;;;;;;;;;;;-128.00;-1.00;-1.00;18485;288;7504493;-36
2023/07/11 08:56:28;;;;;;;;;;;;;;;-128.00;-1.00;-1.00;18501;295;7504230;-36
2023/07/11 08:58:54;;;;;;;;;;;;;;;-128.00;-1.00;-1.00;18470;288;7504756;-32
2023/07/11 09:01:29;;;;;;;;;;;;;;;-128.00;-1.00;-1.00;18875;296;7504928;-36
2023/07/11 09:03:55;;;;;;;;;;;;;;;-128.00;-1.00;-1.00;18487;339;7504553;-31
2023/07/11 09:06:22;;;;;;;;;;;;;;;-128.00;-1.00;-1.00;18863;295;7504358;-37
2023/07/11 09:08:48;;;;;;;;;;;;;;;-128.00;-1.00;-1.00;18469;288;7506056;-32
2023/07/11 09:11:20;;;;;;;;;;;;;;;-128.00;-1.00;-1.00;18464;335;7504993;-32
2023/07/11 09:13:57;;;;;;;;;;;;;;;-128.00;-1.00;-1.00;18462;296;7504466;-38
2023/07/11 09:16:31;;;;;;;;;;;;;;;-128.00;-1.00;-1.00;18459;288;7504712;-32
2023/07/11 09:19:02;;;;;;;;;;;;;;;-128.00;-1.00;-1.00;18494;295;7506028;-32
2023/07/11 09:21:31;;;;;;;;;;;;;;;-128.00;-1.00;-1.00;18466;296;7504679;-36
2023/07/11 09:24:00;;;;;;;;;;;;;;;-128.00;-1.00;-1.00;18171;296;8067676;-36
2023/07/11 09:26:27;;;;;;;;;;;;;;;-128.00;-1.00;-1.00;18468;296;7504811;-32
2023/07/11 09:29:04;;;;;;;;;;;;;;;-128.00;-1.00;-1.00;18498;295;7506043;-33
2023/07/11 09:31:38;;;;;;;;;;;;;;;-128.00;-1.00;-1.00;18492;285;7504535;-36
2023/07/11 09:34:16;;;;;;;;;;;;;;;-128.00;-1.00;-1.00;18460;295;7504680;-32
2023/07/11 09:36:41;;;;;;;;;;;;;;;-128.00;-1.00;-1.00;18500;288;7504446;-37
2023/07/11 09:39:20;;;;;;;;;;;;;;;-128.00;-1.00;-1.00;18484;288;7505011;-32
2023/07/11 09:41:48;;;;;;;;;;;;;;;-128.00;-1.00;-1.00;18507;295;7504659;-31
2023/07/11 09:44:14;;;;;;;;;;;;;;;-128.00;-1.00;-1.00;18474;288;7504544;-35
2023/07/11 09:46:39;;;;;;;;;;;;;;;-128.00;-1.00;-1.00;18480;295;7505969;-31
2023/07/11 09:49:07;;;;;;;;;;;;;;;-128.00;-1.00;-1.00;18862;295;7504664;-35
2023/07/11 09:51:36;;;;;;;;;;;;;;;-128.00;-1.00;-1.00;18466;295;7505974;-32
2023/07/11 09:54:02;;;;;;;;;;;;;;;-128.00;-1.00;-1.00;18482;288;7504935;-36
2023/07/11 09:56:29;;;;;;;;;;;;;;;-128.00;-1.00;-1.00;18498;295;7505222;-32
2023/07/11 09:58:59;;;;;;;;;;;;;;;-128.00;-1.00;-1.00;18860;295;7504306;-32
2023/07/11 10:01:26;;;;;;;;;;;;;;;-128.00;-1.00;-1.00;18474;295;7507812;-32
2023/07/11 10:03:53;;;;;;;;;;;;;;;-128.00;-1.00;-1.00;18485;295;7504603;-36
2023/07/11 10:06:26;;;;;;;;;;;;;;;-128.00;-1.00;-1.00;18489;288;7504614;-32
2023/07/11 10:08:52;;;;;;;;;;;;;;;-128.00;-1.00;-1.00;18457;295;7504868;-36
2023/07/11 10:11:18;;;;;;;;;;;;;;;-128.00;-1.00;-1.00;18494;319;7504958;-36
2023/07/11 10:13:47;;;;;;;;;;;;;;;-128.00;-1.00;-1.00;18890;295;7504353;-36
2023/07/11 10:16:17;;;;;;;;;;;;;;;-128.00;-1.00;-1.00;18459;288;7504568;-36
2023/07/11 10:18:43;;;;;;;;;;;;;;;-128.00;-1.00;-1.00;18476;295;7506147;-36
2023/07/11 10:21:21;;;;;;;;;;;;;;;-128.00;-1.00;-1.00;18467;295;7506250;-36
2023/07/11 10:23:47;;;;;;;;;;;;;;;-128.00;-1.00;-1.00;18477;295;7506227;-37
2023/07/11 10:26:19;;;;;;;;;;;;;;;-128.00;-1.00;-1.00;18472;295;7504980;-35
2023/07/11 10:28:45;;;;;;;;;;;;;;;-128.00;-1.00;-1.00;18470;288;7504621;-36
2023/07/11 10:31:12;;;;;;;;;;;;;;;-128.00;-1.00;-1.00;18449;289;7504373;-36
2023/07/11 10:33:43;;;;;;;;;;;;;;;-128.00;-1.00;-1.00;18482;288;7504198;-33
2023/07/11 10:36:15;;;;;;;;;;;;;;;-128.00;-1.00;-1.00;18483;288;7505313;-36
2023/07/11 10:38:49;;;;;;;;;;;;;;;-128.00;-1.00;-1.00;18469;284;7504409;-35
2023/07/11 10:41:19;;;;;;;;;;;;;;;-128.00;-1.00;-1.00;18474;295;7504134;-33
2023/07/11 10:43:45;;;;;;;;;;;;;;;-128.00;-1.00;-1.00;18476;295;7506448;-35
2023/07/11 10:46:13;;;;;;;;;;;;;;;-128.00;-1.00;-1.00;18508;295;7504966;-32
2023/07/11 10:48:40;;;;;;;;;;;;;;;-128.00;-1.00;-1.00;18522;288;7506042;-36
2023/07/11 10:51:17;;;;;;;;;;;;;;;-128.00;-1.00;-1.00;18466;295;7505961;-31
2023/07/11 10:53:53;;;;;;;;;;;;;;;-128.00;-1.00;-1.00;18465;288;7504028;-32
2023/07/11 10:56:20;;;;;;;;;;;;;;;-128.00;-1.00;-1.00;18474;340;7504361;-31
2023/07/11 10:58:46;;;;;;;;;;;;;;;-128.00;-1.00;-1.00;18462;296;7504424;-33
2023/07/11 11:01:16;;;;;;;;;;;;;;;-128.00;-1.00;-1.00;18870;295;7504881;-32
2023/07/11 11:03:42;;;;;;;;;;;;;;;-128.00;-1.00;-1.00;18512;288;7505841;-36
2023/07/11 11:06:20;;;;;;;;;;;;;;;-128.00;-1.00;-1.00;18491;295;7504523;-35
2023/07/11 11:08:53;;;;;;;;;;;;;;;-128.00;-1.00;-1.00;18527;295;7504111;-36
2023/07/11 11:11:31;;;;;;;;;;;;;;;-128.00;-1.00;-1.00;18475;303;7505463;-31
2023/07/11 11:14:17;;;;;;;;;;;;;;;-128.00;-1.00;-1.00;18474;296;7504454;-32
2023/07/11 11:16:50;;;;;;;;;;;;;;;-128.00;-1.00;-1.00;18502;295;7504973;-32
2023/07/11 11:19:35;;;;;;;;;;;;;;;-128.00;-1.00;-1.00;18455;347;7505958;-35
2023/07/11 11:22:05;;;;;;;;;;;;;;;-128.00;-1.00;-1.00;18467;319;7506538;-36
2023/07/11 11:24:33;;;;;;;;;;;;;;;-128.00;-1.00;-1.00;18495;288;7505846;-36
2023/07/11 11:27:01;;;;;;;;;;;;;;;-128.00;-1.00;-1.00;18491;347;7504869;-32
2023/07/11 11:29:39;;;;;;;;;;;;;;;-128.00;-1.00;-1.00;18476;295;7505320;-35
2023/07/11 11:32:16;;;;;;;;;;;;;;;-128.00;-1.00;-1.00;18466;296;7504165;-31
2023/07/11 11:34:50;;;;;;;;;;;;;;;-128.00;-1.00;-1.00;18522;295;7506045;-36
2023/07/11 11:37:27;;;;;;;;;;;;;;;-128.00;-1.00;-1.00;18473;296;7505323;-36
2023/07/11 11:40:00;;;;;;;;;;;;;;;-128.00;-1.00;-1.00;18470;295;7506250;-32
2023/07/11 11:42:30;;;;;;;;;;;;;;;-128.00;-1.00;-1.00;18486;295;7504548;-32
2023/07/11 11:44:57;;;;;;;;;;;;;;;-128.00;-1.00;-1.00;18480;319;7505831;-36
2023/07/11 11:47:22;;;;;;;;;;;;;;;-128.00;-1.00;-1.00;18515;288;7506077;-37
2023/07/11 11:49:48;;;;;;;;;;;;;;;-128.00;-1.00;-1.00;18461;295;7504506;-33
2023/07/11 11:52:15;;;;;;;;;;;;;;;-128.00;-1.00;-1.00;18902;296;7504624;-32
2023/07/11 11:54:45;;;;;;;;;;;;;;;-128.00;-1.00;-1.00;18875;295;7505643;-33
2023/07/11 11:57:15;;;;;;;;;;;;;;;-128.00;-1.00;-1.00;18466;288;7504653;-32
2023/07/11 11:59:41;;;;;;;;;;;;;;;-128.00;-1.00;-1.00;18482;295;7505025;-32
2023/07/11 12:02:19;;;;;;;;;;;;;;;-128.00;-1.00;-1.00;18886;295;7505284;-35
2023/07/11 12:04:56;;;;;;;;;;;;;;;-128.00;-1.00;-1.00;18493;336;7507412;-35
2023/07/11 12:07:27;;;;;;;;;;;;;;;-128.00;-1.00;-1.00;18488;288;7506078;-36
2023/07/11 12:10:13;;;;;;;;;;;;;;;-128.00;-1.00;-1.00;18488;347;7507232;-35
2023/07/11 12:12:55;;;;;;;;;;;;;;;-128.00;-1.00;-1.00;18481;348;7504797;-31
2023/07/11 12:15:22;;;;;;;;;;;;;;;-128.00;-1.00;-1.00;18478;295;7504484;-35
2023/07/11 12:17:48;;;;;;;;;;;;;;;-128.00;-1.00;-1.00;18460;295;7504627;-31
2023/07/11 12:20:18;;;;;;;;;;;;;;;-128.00;-1.00;-1.00;18472;295;7505101;-33
2023/07/11 12:23:03;;;;;;;;;;;;;;;-128.00;-1.00;-1.00;18483;295;7504604;-32
2023/07/11 12:25:29;;;;;;;;;;;;;;;-128.00;-1.00;-1.00;18477;288;7504555;-36
2023/07/11 12:28:01;;;;;;;;;;;;;;;-128.00;-1.00;-1.00;18496;295;7506170;-32
2023/07/11 12:30:37;;;;;;;;;;;;;;;-128.00;-1.00;-1.00;18479;288;7506465;-36
2023/07/11 12:33:14;;;;;;;;;;;;;;;-128.00;-1.00;-1.00;18495;348;7504335;-36
2023/07/11 13:16:45;;;;;;;0.90;0.20;;;;;;;;;;101321;292;543867;-31
2023/07/11 13:19:18;;;;;;;1.10;0.70;;;;;;;;;;101013;293;646817;-31
2023/07/11 13:21:44;;;;;;;0.80;0.30;;;;;;;;;;101465;293;24143;-35
2023/07/11 13:24:11;;;;;;;0.80;0.60;;;;;;;;;;101588;293;24722;-35
2023/07/11 13:26:36;;;;;;;3.80;0.60;;;;;;;;;;101649;293;23949;-35